Date,TemperatureHighF,TemperatureAvgF,TemperatureLowF,DewpointHighF,DewpointAvgF,DewpointLowF,HumidityHigh,HumidityAvg,HumidityLow,PressureMaxIn,PressureMinIn,WindSpeedMaxMPH,WindSpeedAvgMPH,GustSpeedMaxMPH,PrecipitationSumIn
2013-3-1,43.9,36.3,31.8,33.1,29.2,25.4,91,76,53,29.75,29.56,3,1,11,0.00
2013-3-2,37.1,31.8,26.6,25.4,24.1,22.1,84,73,61,29.75,29.67,3,1,13,0.00
2013-3-3,31.4,27.2,24.1,24.1,20.2,16.0,84,75,60,29.72,29.65,3,2,13,0.00
2013-3-4,53.3,36.9,24.4,45.3,23.1,17.1,76,59,37,29.85,29.70,5,2,14,0.00
2013-3-5,45.5,34.5,27.2,29.0,24.6,20.8,83,68,45,30.04,29.84,4,1,11,0.00
2013-3-6,39.1,35.4,33.1,34.2,29.9,27.2,91,80,69,30.01,29.92,6,4,12,0.00
2013-3-7,52.9,40.0,30.5,33.0,30.5,25.9,93,72,46,30.05,29.94,4,1,14,0.02
2013-3-8,36.9,32.9,28.5,31.4,27.8,23.0,94,82,60,30.19,29.96,4,1,9,0.06
2013-3-9,55.1,38.1,27.2,28.4,23.4,18.8,84,59,25,30.33,30.17,3,1,9,0.09
2013-3-10,52.4,36.1,23.6,31.9,28.0,22.1,96,75,41,30.39,30.29,2,0,6,0.00
2013-3-11,51.4,40.7,33.1,42.2,36.7,30.9,97,86,66,30.32,30.11,2,0,6,0.00
2013-3-12,51.1,46.4,38.1,50.5,45.4,35.1,98,97,89,30.11,29.67,3,0,10,0.97
2013-3-13,46.9,39.8,30.7,35.2,27.0,19.7,92,62,38,29.85,29.75,2,1,9,0.00
2013-3-14,32.9,28.6,24.9,28.1,16.1,8.5,86,60,41,29.90,29.80,5,1,17,0.00
2013-3-15,40.7,30.9,20.6,28.9,17.4,7.5,85,59,36,29.93,29.70,3,1,9,0.00
2013-3-16,37.2,31.0,25.5,27.0,20.7,13.7,90,67,40,29.90,29.73,2,0,5,0.00
2013-3-17,34.7,27.6,20.9,25.5,13.0,4.8,95,57,30,30.32,29.90,4,1,10,0.00
2013-3-18,34.4,26.1,16.7,25.7,11.2,3.8,94,56,31,30.43,30.09,3,1,7,0.00
2013-3-19,36.9,31.4,27.2,34.0,29.8,25.7,96,93,86,30.09,29.67,5,2,9,0.24
2013-3-20,41.9,31.1,23.9,28.1,19.8,14.6,90,65,36,29.83,29.76,3,1,11,0.09
2013-3-21,35.9,29.9,25.6,23.2,14.5,8.1,82,55,32,29.83,29.62,2,1,8,0.01
2013-3-22,37.7,31.4,21.3,22.3,18.1,10.3,72,58,46,29.83,29.69,3,1,9,0.00
2013-3-23,42.7,34.6,27.6,23.2,19.8,15.0,78,56,34,29.89,29.75,5,1,16,0.00
2013-3-24,43.5,33.6,25.5,26.5,21.8,17.0,79,63,44,29.91,29.72,4,1,12,0.00
2013-3-25,42.9,36.1,28.7,27.5,25.1,23.3,84,65,49,29.75,29.45,4,2,8,0.00
2013-3-26,47.9,37.6,29.7,29.8,26.0,21.4,79,64,41,29.84,29.57,4,1,13,0.00
2013-3-27,52.0,39.1,29.2,26.9,23.0,18.5,80,54,29,29.93,29.82,4,1,10,0.00
2013-3-28,48.1,39.7,32.0,34.5,30.2,25.8,81,69,51,30.08,29.92,3,1,11,0.00
2013-3-29,53.7,43.5,35.1,32.1,28.1,25.3,75,56,35,30.11,30.02,3,1,12,0.00
2013-3-30,54.7,41.5,29.4,32.0,25.3,18.0,90,57,25,30.13,30.05,4,1,10,0.00
2013-3-31,55.1,42.4,29.1,39.8,28.3,20.0,95,60,31,30.13,29.67,3,1,11,0.09